Airfield :
LOGIN :

Register | Disclaimer

   EN    FR    IT 

 










Legend :    VFR   Marginal VFR   IFR   Intensive IFR   Very Intensive IFR
Visi :
Ceiling :
>= 8 km
>= 3000ft
5 to 8 km
1000 to 3000 ft
1500m to 5 km
500 to 1000 ft
800 to 1500m
200 to 500 ft
< 800m
< 200 ft
Symbols :   Thunderstorms  Fog  Heavy snow  Heavy precipitations  Wind > 20 kt
SIGMETs :     Misc.  Thunderstorms  Icing  Turbulence  Mountain Waves  Volcanic Ashes






- Airport Elevation : 93 ft
- IATA code : XRY


LEJR - Jerez

CURRENT METAR :
  • 250400Z 15004KT CAVOK 15/12 Q1016

EXPIRED METARs :
  • 250330Z 00000KT CAVOK 14/12 Q1016
  • 250300Z AUTO 17002KT 9000 NCD 15/13 Q1016
  • 250230Z AUTO 16001KT 9000 NCD 15/13 Q1017
  • 250200Z AUTO 10001KT CAVOK 14/12 Q1017
  • 250130Z AUTO 00000KT 9000 NCD 15/12 Q1017
  • 250030Z AUTO 00000KT 9000 NCD 15/12 Q1017
  • 250000Z AUTO VRB02KT 9000 NCD 15/12 Q1017
  • 242330Z AUTO VRB01KT 9000 NCD 16/13 Q1017

TAF TAF LEJR
Valid from the 25 at 03:00 until the 26 at 03:00 UTC


250200Z 2503/2603 17005KT CAVOK TX31/2514Z TN14/2506Z
BECMG 2512/2514 31010KT
BECMG 2520/2522 18005KT



MET'MAP, your aeronautical weather chart ! - Copyright ORBIFLY December 2007 - Disclaimer

ORBIFLY MET'MAP TEAM :

Programming & Development : Alexandra Zaïnal
Original concept : Baudouin d'Aumeries
Technical & hardware support : Manuel Goepfert
Assistance : Marc-Olivier Méhu




SOURCES & CREDITS :

   NOAA